Time;durP1;ratioP1;P1;durP2;ratioP2;P2;SDS_P1;SDS_P2;PMS_P1;PMS_P2;Temp;Humidity;BMP_temperature;BMP_pressure;BME280_temperature;BME280_humidity;BME280_pressure;Samples;Min_cycle;Max_cycle;Signal;HPM_P1;HPM_P2
2021/03/02 00:00:49;;;;;;;37.95;21.45;;;22.20;32.50;;;;;;6166684;28;83687;-68
2021/03/02 00:03:49;;;;;;;30.30;20.05;;;22.20;32.40;;;;;;6174822;28;83442;-66
2021/03/02 00:06:50;;;;;;;35.72;21.92;;;22.20;32.70;;;;;;6154992;28;84029;-67
2021/03/02 00:09:51;;;;;;;34.55;20.95;;;22.20;32.70;;;;;;6175070;28;83720;-67
2021/03/02 00:12:51;;;;;;;35.22;20.20;;;22.20;32.80;;;;;;6172247;28;83813;-67
2021/03/02 00:15:52;;;;;;;40.78;21.88;;;22.20;32.70;;;;;;6165171;28;83135;-67
2021/03/02 00:18:52;;;;;;;38.40;22.40;;;22.20;32.70;;;;;;6144214;28;86099;-66
2021/03/02 00:21:53;;;;;;;36.33;21.48;;;22.20;32.70;;;;;;6173504;28;83191;-67
2021/03/02 00:24:53;;;;;;;37.15;22.75;;;22.20;32.70;;;;;;6145558;27;83992;-67
2021/03/02 00:27:54;;;;;;;37.83;22.48;;;22.20;32.60;;;;;;6162788;28;83330;-67
2021/03/02 00:30:55;;;;;;;39.20;22.42;;;22.20;32.50;;;;;;6169342;28;83073;-67
2021/03/02 00:33:55;;;;;;;38.22;23.30;;;22.20;32.50;;;;;;6170738;28;85572;-67
2021/03/02 00:36:56;;;;;;;42.40;22.58;;;22.20;32.40;;;;;;6163390;28;82939;-67
2021/03/02 00:39:56;;;;;;;38.35;24.15;;;22.10;32.40;;;;;;6167154;28;83227;-67
2021/03/02 00:42:57;;;;;;;35.63;22.25;;;22.10;32.40;;;;;;6166333;28;83845;-67
2021/03/02 00:45:58;;;;;;;35.67;22.48;;;22.10;32.40;;;;;;6167491;28;82881;-67
2021/03/02 00:48:58;;;;;;;40.50;23.35;;;22.10;32.40;;;;;;6170994;28;84227;-66
2021/03/02 00:51:59;;;;;;;39.20;23.42;;;22.10;32.40;;;;;;6170762;28;84556;-66
2021/03/02 00:55:00;;;;;;;41.28;24.35;;;22.10;32.40;;;;;;6171101;28;87307;-67
2021/03/02 00:58:01;;;;;;;39.45;24.05;;;22.10;32.40;;;;;;6116625;27;89716;-67
2021/03/02 01:01:06;;;;;;;38.30;22.93;;;22.10;32.40;;;;;;6120467;28;90017;-67
2021/03/02 01:04:07;;;;;;;38.55;23.75;;;22.00;32.30;;;;;;6170103;27;83973;-67
2021/03/02 01:07:09;;;;;;;38.08;22.55;;;22.00;32.30;;;;;;6139383;28;84278;-67
2021/03/02 01:10:09;;;;;;;38.55;23.45;;;22.00;32.30;;;;;;6148946;28;85437;-67
2021/03/02 01:13:11;;;;;;;39.25;22.73;;;22.00;32.50;;;;;;6152886;28;85989;-67
2021/03/02 01:16:12;;;;;;;40.53;24.77;;;22.00;32.40;;;;;;6171657;28;83537;-69
2021/03/02 01:19:12;;;;;;;40.83;23.00;;;22.00;32.50;;;;;;6169095;28;83943;-67
2021/03/02 01:22:13;;;;;;;41.85;24.52;;;22.00;32.50;;;;;;6172704;28;83778;-68
2021/03/02 01:25:13;;;;;;;40.13;24.80;;;22.00;32.50;;;;;;6168950;28;85039;-67
2021/03/02 01:28:14;;;;;;;39.67;22.15;;;22.00;32.40;;;;;;6168547;27;83542;-68
2021/03/02 01:31:14;;;;;;;40.60;22.77;;;22.00;32.40;;;;;;6167196;28;84639;-68
2021/03/02 01:34:15;;;;;;;38.20;23.15;;;22.00;32.50;;;;;;6170663;28;84153;-68
2021/03/02 01:37:15;;;;;;;38.10;22.88;;;22.00;32.50;;;;;;6170111;28;83315;-68
2021/03/02 01:40:16;;;;;;;38.80;22.95;;;22.00;32.40;;;;;;6170755;27;82979;-67
2021/03/02 01:43:17;;;;;;;40.55;23.40;;;22.00;32.40;;;;;;6171701;28;83644;-67
2021/03/02 01:46:17;;;;;;;37.38;22.75;;;22.00;32.40;;;;;;6171626;28;83433;-68
2021/03/02 01:49:18;;;;;;;39.67;24.17;;;22.00;32.40;;;;;;6166438;28;82980;-68
2021/03/02 01:52:18;;;;;;;38.35;22.38;;;21.90;32.30;;;;;;6170891;27;83393;-68
2021/03/02 01:55:19;;;;;;;37.88;23.00;;;22.00;32.30;;;;;;6171460;28;83673;-67
2021/03/02 01:58:20;;;;;;;38.25;23.27;;;22.00;32.30;;;;;;6165283;28;83457;-68
2021/03/02 02:01:21;;;;;;;39.45;22.67;;;22.00;32.30;;;;;;6172790;28;83865;-67
2021/03/02 02:04:21;;;;;;;38.75;23.75;;;22.00;32.90;;;;;;6168462;28;83632;-68
2021/03/02 02:07:22;;;;;;;39.70;22.73;;;22.00;32.20;;;;;;6146327;27;84568;-67
2021/03/02 02:10:22;;;;;;;38.60;22.63;;;21.90;32.10;;;;;;6167122;28;83238;-67
2021/03/02 02:13:23;;;;;;;38.42;23.25;;;21.90;32.10;;;;;;6166831;28;85015;-67
2021/03/02 02:16:23;;;;;;;36.42;23.35;;;21.90;32.10;;;;;;6167455;28;84255;-67
2021/03/02 02:19:24;;;;;;;37.33;22.40;;;21.90;32.10;;;;;;6155968;27;84018;-66
2021/03/02 02:22:24;;;;;;;37.60;22.35;;;22.00;32.10;;;;;;6164820;28;83390;-68
2021/03/02 02:25:25;;;;;;;36.78;22.60;;;21.90;32.10;;;;;;6175635;28;83301;-68
2021/03/02 02:28:25;;;;;;;37.25;23.55;;;21.90;32.20;;;;;;6159420;27;83283;-67
2021/03/02 02:31:26;;;;;;;37.75;22.67;;;21.90;32.20;;;;;;6179515;28;83060;-67
2021/03/02 02:34:27;;;;;;;38.20;22.95;;;21.90;32.30;;;;;;6168112;28;83234;-67
2021/03/02 02:37:27;;;;;;;39.20;22.92;;;21.90;32.20;;;;;;6155239;27;83678;-67
2021/03/02 02:40:28;;;;;;;34.03;21.52;;;21.90;32.30;;;;;;6177772;28;83517;-67
2021/03/02 02:43:28;;;;;;;40.53;23.50;;;21.90;32.30;;;;;;6179845;27;83426;-67
2021/03/02 02:46:29;;;;;;;40.88;23.92;;;21.90;32.30;;;;;;6174000;28;83819;-67
2021/03/02 02:49:29;;;;;;;42.95;24.77;;;21.90;32.40;;;;;;6175262;28;84845;-66
2021/03/02 02:52:30;;;;;;;41.80;25.15;;;21.90;32.40;;;;;;6175197;28;83320;-67
2021/03/02 02:55:30;;;;;;;41.88;24.33;;;21.90;32.50;;;;;;6175246;28;83174;-67
2021/03/02 02:58:31;;;;;;;43.08;24.98;;;21.90;33.10;;;;;;6174597;28;83527;-66
2021/03/02 03:01:31;;;;;;;43.53;24.80;;;21.90;32.50;;;;;;6178046;28;83495;-67
2021/03/02 03:04:32;;;;;;;43.97;25.67;;;21.80;32.50;;;;;;6176146;28;83330;-67
2021/03/02 03:07:32;;;;;;;42.58;26.02;;;21.80;32.50;;;;;;6180793;28;83209;-67
2021/03/02 03:10:33;;;;;;;41.90;23.65;;;21.80;32.50;;;;;;6179190;28;83421;-66
2021/03/02 03:13:34;;;;;;;44.38;26.48;;;21.80;32.50;;;;;;6177732;28;83246;-67
2021/03/02 03:16:34;;;;;;;43.13;24.83;;;21.80;32.50;;;;;;6164134;28;83442;-66
2021/03/02 03:19:35;;;;;;;42.88;25.75;;;21.80;32.50;;;;;;6177791;27;82991;-66
2021/03/02 03:22:35;;;;;;;46.08;25.60;;;21.90;32.50;;;;;;6172891;28;83191;-67
2021/03/02 03:25:36;;;;;;;39.17;23.52;;;21.80;32.40;;;;;;6174502;27;83529;-66
2021/03/02 03:28:36;;;;;;;42.15;25.33;;;21.80;32.40;;;;;;6171084;28;83759;-66
2021/03/02 03:31:37;;;;;;;41.63;24.90;;;21.80;32.40;;;;;;6174799;27;83365;-68
2021/03/02 03:34:38;;;;;;;40.22;24.50;;;21.80;32.40;;;;;;6149802;28;90738;-68
2021/03/02 03:37:38;;;;;;;39.10;24.20;;;21.80;32.30;;;;;;6169386;28;84512;-67
2021/03/02 03:40:39;;;;;;;42.92;25.17;;;21.80;32.30;;;;;;6172782;28;83319;-67
2021/03/02 03:43:39;;;;;;;38.38;24.48;;;21.80;32.20;;;;;;6163690;28;84570;-67
2021/03/02 03:46:40;;;;;;;40.80;25.25;;;21.80;32.20;;;;;;6169927;28;84147;-67
2021/03/02 03:49:40;;;;;;;41.92;25.15;;;21.80;32.10;;;;;;6174751;27;83540;-67
2021/03/02 03:52:41;;;;;;;45.40;26.75;;;21.80;32.30;;;;;;6165890;28;83045;-67
2021/03/02 03:55:41;;;;;;;46.70;26.25;;;21.80;32.10;;;;;;6162280;28;83497;-67
2021/03/02 03:58:42;;;;;;;44.80;26.40;;;21.80;32.00;;;;;;6162450;28;83046;-68
2021/03/02 04:01:42;;;;;;;47.03;25.92;;;21.80;32.10;;;;;;6163753;28;83229;-67
2021/03/02 04:04:43;;;;;;;45.53;27.50;;;21.80;32.00;;;;;;6162489;28;83792;-68
2021/03/02 04:07:43;;;;;;;44.05;26.58;;;21.80;32.10;;;;;;6153903;28;84982;-67
2021/03/02 04:10:44;;;;;;;42.97;26.48;;;21.80;32.00;;;;;;6171842;28;84588;-67
2021/03/02 04:13:44;;;;;;;44.22;26.85;;;21.80;32.10;;;;;;6163459;28;83916;-67
2021/03/02 04:16:45;;;;;;;43.30;25.65;;;21.80;32.10;;;;;;6172688;28;83607;-68
2021/03/02 04:19:45;;;;;;;45.05;26.42;;;21.80;32.30;;;;;;6172761;28;83565;-68
2021/03/02 04:22:46;;;;;;;50.38;28.80;;;21.90;32.10;;;;;;6172718;28;83483;-68
2021/03/02 04:25:46;;;;;;;50.97;28.67;;;21.90;31.90;;;;;;6160390;27;83686;-67
2021/03/02 04:28:47;;;;;;;54.33;30.15;;;21.90;31.50;;;;;;6170238;28;84822;-67
2021/03/02 04:31:48;;;;;;;51.05;30.02;;;22.00;32.20;;;;;;6173032;28;83778;-67
2021/03/02 04:34:48;;;;;;;52.20;31.35;;;22.00;31.40;;;;;;6154223;28;83379;-67
2021/03/02 04:37:49;;;;;;;55.08;32.90;;;22.10;31.50;;;;;;6168980;28;93332;-69
2021/03/02 04:40:49;;;;;;;52.35;32.45;;;22.10;31.30;;;;;;6172514;27;83436;-69
2021/03/02 04:43:50;;;;;;;57.15;33.30;;;22.20;31.30;;;;;;6154720;28;83353;-69
2021/03/02 04:46:50;;;;;;;63.05;34.42;;;22.20;31.30;;;;;;6163682;27;83364;-69
2021/03/02 04:49:51;;;;;;;59.28;32.78;;;22.20;31.20;;;;;;6167767;28;83539;-68
2021/03/02 04:52:51;;;;;;;57.03;33.05;;;22.30;31.10;;;;;;6165824;28;83447;-69
2021/03/02 04:55:52;;;;;;;58.47;34.70;;;22.30;30.80;;;;;;6173862;28;83437;-68
2021/03/02 04:58:53;;;;;;;56.80;34.05;;;22.30;30.70;;;;;;6170224;28;83159;-69
2021/03/02 05:01:53;;;;;;;59.42;34.63;;;22.30;30.70;;;;;;6162009;28;83994;-69
2021/03/02 05:04:54;;;;;;;62.95;35.28;;;22.30;30.60;;;;;;6166949;28;86093;-68
2021/03/02 05:07:54;;;;;;;65.60;35.58;;;22.30;30.60;;;;;;6169421;27;84931;-67
2021/03/02 05:10:55;;;;;;;59.40;33.85;;;22.40;30.60;;;;;;6170889;28;83339;-67
2021/03/02 05:13:55;;;;;;;58.88;32.33;;;22.40;31.00;;;;;;6167127;28;84161;-66
2021/03/02 05:16:56;;;;;;;53.92;30.33;;;22.40;31.50;;;;;;6171638;28;83075;-66
2021/03/02 05:19:56;;;;;;;56.22;32.75;;;22.40;31.80;;;;;;6169240;28;84116;-66
2021/03/02 05:22:57;;;;;;;59.72;31.67;;;22.40;31.90;;;;;;6164057;28;83536;-64
2021/03/02 05:25:57;;;;;;;56.25;31.27;;;22.40;32.10;;;;;;6165104;28;83447;-65
2021/03/02 05:28:58;;;;;;;53.15;29.92;;;22.40;32.80;;;;;;6169731;27;83311;-65
2021/03/02 05:31:58;;;;;;;553.83;198.88;;;22.50;32.90;;;;;;6172151;28;83181;-67
2021/03/02 05:34:59;;;;;;;816.63;327.98;;;22.50;33.40;;;;;;6162607;27;86462;-66
2021/03/02 05:38:00;;;;;;;932.03;375.38;;;22.60;33.40;;;;;;6164191;28;86287;-65
2021/03/02 05:41:00;;;;;;;704.13;276.38;;;22.60;33.60;;;;;;6166231;28;87027;-65
2021/03/02 05:44:01;;;;;;;602.92;229.35;;;22.70;33.10;;;;;;6170530;28;86127;-66
2021/03/02 05:47:01;;;;;;;560.55;209.45;;;22.70;33.00;;;;;;6168621;28;85896;-66
2021/03/02 05:50:02;;;;;;;498.60;177.48;;;22.70;32.70;;;;;;6169097;28;86472;-65
2021/03/02 05:53:02;;;;;;;441.02;154.27;;;22.70;33.00;;;;;;6164325;28;85497;-65
2021/03/02 05:56:03;;;;;;;413.73;145.65;;;22.70;33.00;;;;;;6168196;27;85812;-64
2021/03/02 05:59:03;;;;;;;386.73;133.10;;;22.70;32.80;;;;;;6161289;28;85273;-63
2021/03/02 06:02:04;;;;;;;329.33;119.72;;;22.70;32.70;;;;;;6162322;28;86409;-66
2021/03/02 06:05:05;;;;;;;307.88;115.07;;;22.70;33.00;;;;;;6166423;28;85850;-66
2021/03/02 06:08:05;;;;;;;298.13;109.15;;;22.80;33.30;;;;;;6147256;28;86900;-65
2021/03/02 06:11:06;;;;;;;280.35;104.82;;;22.70;33.30;;;;;;6149966;28;86593;-67
2021/03/02 06:14:06;;;;;;;254.20;95.10;;;22.70;34.20;;;;;;6164609;28;86695;-64
2021/03/02 06:17:07;;;;;;;214.63;86.63;;;22.70;34.30;;;;;;6166459;28;85584;-65
2021/03/02 06:20:08;;;;;;;209.68;79.55;;;22.70;34.70;;;;;;6167455;28;83110;-66
2021/03/02 06:23:08;;;;;;;198.25;77.68;;;22.70;34.90;;;;;;6172222;27;83472;-66
2021/03/02 06:26:09;;;;;;;187.35;74.55;;;22.70;35.00;;;;;;6169962;28;83713;-65
2021/03/02 06:29:09;;;;;;;178.68;73.53;;;22.70;35.40;;;;;;6171917;28;83415;-67
2021/03/02 06:32:10;;;;;;;159.40;68.03;;;22.70;36.00;;;;;;6170736;28;83160;-65
2021/03/02 06:35:10;;;;;;;155.65;66.70;;;22.70;35.50;;;;;;6168474;28;84217;-66
2021/03/02 06:38:11;;;;;;;159.05;63.00;;;22.70;35.50;;;;;;6170337;28;84134;-66
2021/03/02 06:41:12;;;;;;;144.80;62.15;;;22.60;35.80;;;;;;6172297;28;83653;-67
2021/03/02 06:44:12;;;;;;;137.20;61.83;;;22.60;35.90;;;;;;6170896;27;83169;-66
2021/03/02 06:47:13;;;;;;;137.02;58.40;;;22.60;35.90;;;;;;6166980;28;83589;-66
2021/03/02 06:50:13;;;;;;;112.60;55.05;;;22.60;35.70;;;;;;6166977;28;83052;-65
2021/03/02 06:53:14;;;;;;;131.82;55.50;;;22.60;36.40;;;;;;6171152;28;85229;-66
2021/03/02 06:56:14;;;;;;;123.28;52.35;;;22.60;35.70;;;;;;6160471;28;84402;-66
2021/03/02 06:59:15;;;;;;;110.78;52.03;;;22.60;35.60;;;;;;6153338;28;85843;-66
2021/03/02 07:02:16;;;;;;;107.97;50.75;;;22.50;35.60;;;;;;6166751;28;83306;-65
2021/03/02 07:05:16;;;;;;;104.15;50.03;;;22.50;35.70;;;;;;6169640;28;83455;-66
2021/03/02 07:08:17;;;;;;;102.20;48.05;;;22.40;35.80;;;;;;6161747;28;83351;-66
2021/03/02 07:11:17;;;;;;;93.88;48.17;;;22.40;35.40;;;;;;6162572;28;86021;-65
2021/03/02 07:14:18;;;;;;;99.82;46.50;;;22.50;35.60;;;;;;6170913;27;83684;-65
2021/03/02 07:17:18;;;;;;;94.63;46.80;;;22.40;35.70;;;;;;6174555;28;84165;-67
2021/03/02 07:20:19;;;;;;;92.18;45.05;;;22.40;35.20;;;;;;6166607;28;83727;-65
2021/03/02 07:23:20;;;;;;;81.63;42.28;;;22.40;34.80;;;;;;6170249;28;83612;-67
2021/03/02 07:26:20;;;;;;;82.28;40.83;;;22.40;35.60;;;;;;6172152;28;86595;-66
2021/03/02 07:29:21;;;;;;;86.05;43.75;;;22.40;35.70;;;;;;6174073;28;83521;-67
2021/03/02 07:32:21;;;;;;;84.47;41.80;;;22.40;36.00;;;;;;6172884;28;83447;-65
2021/03/02 07:35:22;;;;;;;81.20;40.20;;;22.50;35.70;;;;;;6169341;27;84655;-67
2021/03/02 07:38:22;;;;;;;82.32;39.95;;;22.40;36.10;;;;;;6169083;28;83290;-65
2021/03/02 07:41:23;;;;;;;77.88;39.25;;;22.50;36.10;;;;;;6169436;27;83444;-67
2021/03/02 07:44:25;;;;;;;73.35;37.95;;;22.40;36.30;;;;;;6172008;28;83141;-67
2021/03/02 07:47:25;;;;;;;70.85;38.42;;;22.40;36.10;;;;;;6173139;28;83612;-66
2021/03/02 07:50:26;;;;;;;71.05;38.97;;;22.50;35.60;;;;;;6164504;28;83014;-67
2021/03/02 07:53:26;;;;;;;72.10;37.20;;;22.50;35.40;;;;;;6172083;28;83352;-67
2021/03/02 07:56:27;;;;;;;76.90;38.03;;;22.50;37.00;;;;;;6160618;28;84090;-66
2021/03/02 07:59:27;;;;;;;72.47;38.53;;;22.50;35.50;;;;;;6173253;27;84043;-66
2021/03/02 08:02:28;;;;;;;64.95;36.38;;;22.50;35.60;;;;;;6171778;28;84488;-66
2021/03/02 08:05:28;;;;;;;70.70;36.05;;;22.50;35.20;;;;;;6166331;28;84250;-63
2021/03/02 08:08:29;;;;;;;73.97;37.55;;;22.50;35.80;;;;;;6171023;28;83718;-65
2021/03/02 08:11:30;;;;;;;79.30;41.15;;;22.60;35.50;;;;;;6166528;28;83415;-64
2021/03/02 08:14:30;;;;;;;81.82;41.45;;;22.60;34.20;;;;;;6154513;28;85773;-66
2021/03/02 08:17:31;;;;;;;79.25;42.15;;;22.50;34.40;;;;;;6153059;28;84075;-66
2021/03/02 08:20:31;;;;;;;80.13;43.60;;;22.50;33.70;;;;;;6164765;28;82996;-66
2021/03/02 08:23:32;;;;;;;86.47;46.03;;;22.40;33.10;;;;;;6176315;28;83263;-65
2021/03/02 08:26:32;;;;;;;83.68;44.72;;;22.30;32.70;;;;;;6171559;28;84150;-65
2021/03/02 08:29:33;;;;;;;80.95;44.78;;;22.30;32.60;;;;;;6172023;28;83400;-64
2021/03/02 08:32:34;;;;;;;85.50;45.92;;;22.30;32.50;;;;;;6172602;28;83520;-65
2021/03/02 08:35:34;;;;;;;85.00;46.22;;;22.20;32.40;;;;;;6167954;28;83756;-65
2021/03/02 08:38:36;;;;;;;83.18;44.63;;;22.20;32.50;;;;;;6165192;28;83547;-65
2021/03/02 08:41:36;;;;;;;75.22;41.10;;;22.20;33.80;;;;;;6152956;27;83540;-67
2021/03/02 08:44:37;;;;;;;60.83;33.67;;;22.30;34.50;;;;;;6167821;28;83671;-66
2021/03/02 08:47:37;;;;;;;55.28;29.00;;;22.40;35.10;;;;;;6172284;28;83695;-66
2021/03/02 08:50:38;;;;;;;48.45;27.45;;;22.40;36.80;;;;;;6144493;28;86171;-67
2021/03/02 08:53:40;;;;;;;43.92;23.52;;;22.40;36.70;;;;;;6167210;28;83444;-67
2021/03/02 08:56:40;;;;;;;33.80;20.02;;;22.50;37.00;;;;;;6161555;28;83681;-64
2021/03/02 08:59:41;;;;;;;35.38;20.50;;;22.50;38.00;;;;;;6168471;27;84117;-63
2021/03/02 09:02:42;;;;;;;34.25;19.38;;;22.60;38.20;;;;;;6170692;28;83552;-64
2021/03/02 09:05:42;;;;;;;30.45;17.77;;;22.60;38.50;;;;;;6171453;28;83740;-65
2021/03/02 09:08:43;;;;;;;28.70;16.95;;;22.70;39.20;;;;;;6173115;28;83542;-64
2021/03/02 09:11:43;;;;;;;27.50;16.63;;;22.70;39.50;;;;;;6167675;28;83826;-66
2021/03/02 09:14:44;;;;;;;26.55;16.48;;;22.70;39.60;;;;;;6170219;28;83652;-65
2021/03/02 09:17:44;;;;;;;27.98;15.68;;;22.70;39.30;;;;;;6161044;27;83379;-66
2021/03/02 09:20:45;;;;;;;28.27;15.88;;;22.70;40.10;;;;;;6170819;28;83235;-65
2021/03/02 09:23:45;;;;;;;23.42;14.63;;;22.70;40.10;;;;;;6155911;28;83508;-65
2021/03/02 09:26:46;;;;;;;25.15;14.68;;;22.80;40.60;;;;;;6162454;28;83501;-64
2021/03/02 09:29:46;;;;;;;25.00;14.82;;;22.80;40.00;;;;;;6164743;28;83327;-66
2021/03/02 09:32:47;;;;;;;22.35;13.55;;;22.80;40.90;;;;;;6170619;28;84395;-66
2021/03/02 09:35:47;;;;;;;25.52;14.50;;;22.90;41.10;;;;;;6169646;28;83242;-65
2021/03/02 09:38:48;;;;;;;25.10;14.48;;;22.90;41.20;;;;;;6170798;28;83757;-66
2021/03/02 09:41:48;;;;;;;29.95;16.17;;;23.00;40.50;;;;;;6164242;28;83821;-66
2021/03/02 09:44:51;;;;;;;26.75;15.65;;;23.00;41.00;;;;;;6150806;28;84572;-67
2021/03/02 09:47:52;;;;;;;30.02;16.10;;;23.00;40.80;;;;;;6170581;28;83128;-68
2021/03/02 09:50:52;;;;;;;33.85;17.33;;;23.10;40.70;;;;;;6173356;28;83410;-66
2021/03/02 09:53:53;;;;;;;22.67;14.68;;;23.10;40.40;;;;;;6167537;28;83418;-65
2021/03/02 09:56:53;;;;;;;24.33;15.05;;;23.10;40.70;;;;;;6172377;28;83595;-65
2021/03/02 09:59:54;;;;;;;27.02;16.17;;;23.10;40.20;;;;;;6154044;28;83132;-64
2021/03/02 10:02:54;;;;;;;27.42;15.75;;;23.10;40.50;;;;;;6160381;28;84212;-66
2021/03/02 10:05:55;;;;;;;22.33;13.65;;;23.10;41.90;;;;;;6163265;27;83822;-65
2021/03/02 10:08:55;;;;;;;26.60;15.02;;;23.20;40.70;;;;;;6151059;28;84461;-65
2021/03/02 10:11:56;;;;;;;23.92;13.57;;;23.20;41.00;;;;;;6163673;27;83619;-67
2021/03/02 10:14:56;;;;;;;25.27;14.25;;;23.20;40.30;;;;;;6168960;28;84528;-66
2021/03/02 10:17:57;;;;;;;20.77;13.60;;;23.20;40.30;;;;;;6144124;28;83111;-66
2021/03/02 10:20:57;;;;;;;24.63;13.40;;;23.30;40.80;;;;;;6152886;28;84521;-66
2021/03/02 10:23:58;;;;;;;21.77;11.95;;;23.30;40.70;;;;;;6169053;28;84218;-65
2021/03/02 10:26:58;;;;;;;20.75;12.73;;;23.30;40.70;;;;;;6143515;28;83414;-65
2021/03/02 10:30:00;;;;;;;26.27;13.40;;;23.40;41.00;;;;;;6166254;27;83558;-66
2021/03/02 10:33:00;;;;;;;25.38;13.48;;;23.40;41.20;;;;;;6168056;28;83346;-66
2021/03/02 10:36:01;;;;;;;28.50;16.95;;;23.50;41.20;;;;;;6156667;27;85254;-64
2021/03/02 10:39:01;;;;;;;30.35;17.17;;;23.50;41.00;;;;;;6166030;28;84057;-64
2021/03/02 10:42:02;;;;;;;268.02;89.10;;;23.50;40.90;;;;;;6163891;28;84197;-65
2021/03/02 10:45:03;;;;;;;448.58;147.98;;;23.60;40.50;;;;;;6166305;28;83328;-65
2021/03/02 10:48:03;;;;;;;588.03;217.60;;;23.60;40.20;;;;;;6169565;28;86254;-65
2021/03/02 10:51:04;;;;;;;563.53;204.40;;;23.70;40.20;;;;;;6169493;28;86043;-66
2021/03/02 10:54:05;;;;;;;481.23;156.55;;;23.70;40.30;;;;;;6165801;28;86033;-64
2021/03/02 10:57:05;;;;;;;374.35;130.95;;;23.70;39.90;;;;;;6169065;28;85834;-65
2021/03/02 11:00:06;;;;;;;319.83;110.90;;;23.70;39.60;;;;;;6168960;28;85477;-65
2021/03/02 11:03:06;;;;;;;266.48;93.32;;;23.80;39.40;;;;;;6168582;28;86213;-66
2021/03/02 11:06:07;;;;;;;219.35;80.70;;;23.80;39.40;;;;;;6173391;27;85366;-64
2021/03/02 11:09:07;;;;;;;205.68;72.57;;;23.80;39.10;;;;;;6174316;28;84388;-65
2021/03/02 11:12:08;;;;;;;182.63;67.55;;;23.80;38.80;;;;;;6177620;27;84865;-64
2021/03/02 11:15:10;;;;;;;158.02;57.47;;;23.80;38.60;;;;;;6167188;28;85239;-63
2021/03/02 11:18:11;;;;;;;139.00;50.65;;;23.80;38.30;;;;;;6169178;28;83335;-64
2021/03/02 11:21:12;;;;;;;132.68;46.78;;;23.80;38.00;;;;;;6167209;28;83871;-64
2021/03/02 11:24:13;;;;;;;114.53;43.38;;;23.90;37.70;;;;;;6171069;27;83417;-64
2021/03/02 11:27:13;;;;;;;99.68;38.30;;;23.90;37.90;;;;;;6168913;28;83043;-65
2021/03/02 11:30:14;;;;;;;80.22;33.00;;;23.90;38.00;;;;;;6165571;27;84002;-64
2021/03/02 11:33:14;;;;;;;70.82;30.65;;;23.90;37.90;;;;;;6159380;28;83531;-64
2021/03/02 11:36:15;;;;;;;68.97;29.17;;;23.90;37.40;;;;;;6169124;27;83279;-65
2021/03/02 11:39:16;;;;;;;60.63;24.83;;;23.90;37.60;;;;;;6171799;28;83585;-67
2021/03/02 11:42:16;;;;;;;62.05;22.63;;;23.90;37.40;;;;;;6167649;28;83873;-64
2021/03/02 11:45:17;;;;;;;45.67;20.50;;;23.90;37.30;;;;;;6165758;28;83205;-66
2021/03/02 11:48:18;;;;;;;49.72;20.00;;;23.90;37.40;;;;;;6169209;28;83606;-65
2021/03/02 11:51:19;;;;;;;41.55;18.15;;;24.00;37.10;;;;;;6171556;28;84016;-65
2021/03/02 11:54:20;;;;;;;36.22;16.02;;;24.00;37.20;;;;;;6166453;28;83440;-65
2021/03/02 11:57:21;;;;;;;32.47;15.40;;;24.00;37.30;;;;;;6171339;28;83200;-64
2021/03/02 12:00:21;;;;;;;31.63;14.30;;;24.00;37.20;;;;;;6164980;27;83424;-64
2021/03/02 12:03:22;;;;;;;31.38;13.82;;;24.00;37.00;;;;;;6165840;28;83130;-66
2021/03/02 12:06:22;;;;;;;30.17;12.20;;;24.00;37.30;;;;;;6171791;28;83481;-67
2021/03/02 12:09:23;;;;;;;25.13;12.07;;;24.00;37.20;;;;;;6172829;27;83222;-66
2021/03/02 12:12:23;;;;;;;20.77;10.23;;;24.10;37.30;;;;;;6165994;28;83191;-66
2021/03/02 12:15:24;;;;;;;20.25;9.30;;;24.10;37.40;;;;;;6167570;27;84576;-66
2021/03/02 12:18:24;;;;;;;15.20;8.70;;;24.00;37.70;;;;;;6176706;28;83102;-66
2021/03/02 12:21:25;;;;;;;15.77;8.93;;;24.00;37.50;;;;;;6174129;27;80713;-66
2021/03/02 12:24:26;;;;;;;15.25;8.13;;;24.00;37.20;;;;;;6170324;28;81480;-66
2021/03/02 12:27:26;;;;;;;14.98;8.27;;;24.00;37.40;;;;;;6172441;27;80736;-67
2021/03/02 12:30:27;;;;;;;12.27;7.88;;;24.10;37.50;;;;;;6168309;28;81076;-66
2021/03/02 12:33:27;;;;;;;17.85;9.30;;;24.10;37.40;;;;;;6170326;28;81316;-66
2021/03/02 12:36:28;;;;;;;15.55;7.53;;;24.10;37.20;;;;;;6167288;28;80463;-65
2021/03/02 12:39:28;;;;;;;15.98;8.63;;;24.10;37.20;;;;;;6176203;28;80808;-66
2021/03/02 12:42:29;;;;;;;13.18;7.10;;;24.10;37.40;;;;;;6171489;28;81628;-66
2021/03/02 12:45:29;;;;;;;12.05;7.40;;;24.10;37.50;;;;;;6172291;28;80579;-66
2021/03/02 12:48:30;;;;;;;14.55;7.40;;;24.10;37.50;;;;;;6176605;28;81254;-65
2021/03/02 12:51:31;;;;;;;16.45;8.52;;;24.10;37.40;;;;;;6174692;28;80955;-64
2021/03/02 12:54:31;;;;;;;13.85;7.72;;;24.10;37.60;;;;;;6163985;28;81607;-64
2021/03/02 12:57:32;;;;;;;14.10;7.43;;;24.10;37.30;;;;;;6166492;28;80441;-66
2021/03/02 13:00:32;;;;;;;14.95;6.93;;;24.10;37.00;;;;;;6171581;28;80661;-65
2021/03/02 13:03:33;;;;;;;13.35;7.20;;;24.10;37.10;;;;;;6165167;27;81271;-64
2021/03/02 13:06:33;;;;;;;13.23;7.18;;;24.20;37.00;;;;;;6165370;28;81397;-64
2021/03/02 13:09:34;;;;;;;10.77;6.32;;;24.10;37.00;;;;;;6173318;28;81070;-64
2021/03/02 13:12:34;;;;;;;10.88;6.65;;;24.10;37.00;;;;;;6173978;28;81940;-65
2021/03/02 13:15:35;;;;;;;9.35;6.32;;;24.10;37.20;;;;;;6172285;28;88588;-65
2021/03/02 13:18:35;;;;;;;12.27;6.80;;;24.10;37.30;;;;;;6173889;27;80596;-66
2021/03/02 13:21:36;;;;;;;11.07;6.82;;;24.10;37.30;;;;;;6169127;28;81257;-65
2021/03/02 13:24:36;;;;;;;12.95;6.43;;;24.10;37.40;;;;;;6175039;28;80776;-65
2021/03/02 13:27:37;;;;;;;10.20;5.78;;;24.10;37.30;;;;;;6166575;27;80850;-66
2021/03/02 13:30:38;;;;;;;12.00;6.53;;;24.20;37.30;;;;;;6156045;28;81680;-66
2021/03/02 13:33:38;;;;;;;9.05;5.15;;;24.20;37.20;;;;;;6166818;27;81306;-64
2021/03/02 13:36:39;;;;;;;9.70;6.10;;;24.20;37.20;;;;;;6172820;28;80838;-64
2021/03/02 13:39:39;;;;;;;9.25;5.88;;;24.20;37.80;;;;;;6172402;28;80565;-67
2021/03/02 13:42:40;;;;;;;9.20;6.15;;;24.20;37.20;;;;;;6173298;28;81852;-66
2021/03/02 13:45:41;;;;;;;10.35;6.05;;;24.20;37.30;;;;;;6169066;27;80553;-65
2021/03/02 13:48:41;;;;;;;10.45;6.20;;;24.20;37.20;;;;;;6156808;28;83228;-67
2021/03/02 13:51:42;;;;;;;7.65;4.88;;;24.10;37.20;;;;;;6172692;28;80593;-68
2021/03/02 13:54:42;;;;;;;8.13;5.30;;;24.10;37.30;;;;;;6171373;28;81406;-67
2021/03/02 13:57:43;;;;;;;8.35;5.10;;;24.10;37.30;;;;;;6168907;27;81018;-67
2021/03/02 14:00:43;;;;;;;9.80;5.65;;;24.10;37.60;;;;;;6170432;28;81734;-67
2021/03/02 14:03:44;;;;;;;10.85;5.68;;;24.10;37.30;;;;;;6172371;28;80814;-65
2021/03/02 14:06:44;;;;;;;9.43;5.20;;;24.10;37.40;;;;;;6174964;28;81487;-65
2021/03/02 14:09:46;;;;;;;8.88;4.90;;;24.10;37.40;;;;;;6155678;27;83773;-65
2021/03/02 14:12:46;;;;;;;7.80;5.10;;;24.10;37.40;;;;;;6169462;28;80883;-64
2021/03/02 14:15:47;;;;;;;9.95;5.10;;;24.10;37.20;;;;;;6167615;27;80584;-65
2021/03/02 14:18:49;;;;;;;8.50;4.80;;;24.10;37.20;;;;;;6160067;28;80838;-63
2021/03/02 14:21:50;;;;;;;8.10;4.82;;;24.10;37.80;;;;;;6163334;28;80436;-64
2021/03/02 14:24:50;;;;;;;14.15;5.25;;;24.00;37.70;;;;;;6166138;28;83581;-64
2021/03/02 14:27:51;;;;;;;11.05;5.10;;;24.00;37.70;;;;;;6168912;28;80968;-65
2021/03/02 14:30:51;;;;;;;10.23;6.28;;;24.00;38.10;;;;;;6169102;28;81783;-66
2021/03/02 14:33:52;;;;;;;18.73;5.88;;;24.00;39.00;;;;;;6167203;28;81077;-65
2021/03/02 14:36:52;;;;;;;11.18;5.65;;;24.00;38.60;;;;;;6166221;28;80760;-64
2021/03/02 14:39:53;;;;;;;9.88;5.93;;;24.00;39.10;;;;;;6159746;28;80360;-66
2021/03/02 14:42:53;;;;;;;10.15;5.47;;;24.00;38.80;;;;;;6166856;27;80601;-68
2021/03/02 14:45:54;;;;;;;8.50;5.68;;;24.00;39.00;;;;;;6170949;28;80741;-67
2021/03/02 14:48:54;;;;;;;8.77;5.40;;;24.00;38.80;;;;;;6168906;28;81431;-66
2021/03/02 14:51:55;;;;;;;9.80;5.82;;;24.00;39.20;;;;;;6169301;28;83431;-66
2021/03/02 14:54:55;;;;;;;9.63;4.95;;;24.00;39.40;;;;;;6166707;27;80732;-66
2021/03/02 14:57:56;;;;;;;10.02;5.50;;;24.00;39.60;;;;;;6171174;28;80921;-66
2021/03/02 15:00:57;;;;;;;8.77;5.35;;;24.00;39.20;;;;;;6168499;28;80400;-65
2021/03/02 15:03:57;;;;;;;9.63;5.78;;;24.00;39.20;;;;;;6164456;28;81186;-66
2021/03/02 15:06:58;;;;;;;18.60;6.20;;;24.00;39.40;;;;;;6161319;27;80520;-66
2021/03/02 15:09:58;;;;;;;11.20;6.50;;;24.00;39.20;;;;;;6168435;28;81191;-65
2021/03/02 15:12:59;;;;;;;19.27;7.72;;;24.00;39.00;;;;;;6163683;28;81426;-66
2021/03/02 15:15:59;;;;;;;12.73;7.32;;;24.00;38.80;;;;;;6159114;28;85691;-65